createdAt,value
2022-10-17T00:00:06.449Z,79.90
2022-10-17T00:00:16.706Z,80.10
2022-10-17T00:00:26.973Z,80.10
2022-10-17T00:00:37.259Z,80.10
2022-10-17T00:00:47.487Z,80.10
2022-10-17T00:00:57.763Z,80.10
2022-10-17T00:01:08.086Z,80.10
2022-10-17T00:01:18.319Z,79.90
2022-10-17T00:01:28.634Z,80.00
2022-10-17T00:01:38.943Z,79.90
2022-10-17T00:01:49.334Z,80.00
2022-10-17T00:01:59.589Z,80.10
2022-10-17T00:02:09.849Z,80.10
2022-10-17T00:02:20.110Z,80.00
2022-10-17T00:02:30.374Z,79.79
2022-10-17T00:02:40.635Z,79.69
2022-10-17T00:02:50.898Z,79.90
2022-10-17T00:03:01.157Z,80.20
2022-10-17T00:03:11.416Z,80.20
2022-10-17T00:03:21.678Z,80.00
2022-10-17T00:03:32.023Z,79.69
2022-10-17T00:03:42.241Z,79.59
2022-10-17T00:03:52.504Z,79.49
2022-10-17T00:04:02.773Z,79.59
2022-10-17T00:04:13.028Z,79.69
2022-10-17T00:04:23.387Z,79.79
2022-10-17T00:04:43.961Z,79.79
2022-10-17T00:04:54.222Z,80.00
2022-10-17T00:05:04.485Z,79.90
2022-10-17T00:05:14.746Z,80.00
2022-10-17T00:05:25.009Z,80.00
2022-10-17T00:05:35.268Z,80.00
2022-10-17T00:05:45.533Z,79.79
2022-10-17T00:05:56.632Z,79.59
2022-10-17T00:06:06.146Z,79.39
2022-10-17T00:06:16.392Z,79.19
2022-10-17T00:06:26.647Z,79.08
2022-10-17T00:06:36.908Z,78.88
2022-10-17T00:06:47.173Z,79.19
2022-10-17T00:06:57.431Z,79.29
2022-10-17T00:07:07.694Z,79.29
2022-10-17T00:07:17.955Z,79.29
2022-10-17T00:07:28.610Z,79.08
2022-10-17T00:07:38.651Z,78.88
2022-10-17T00:07:48.886Z,78.68
2022-10-17T00:07:59.149Z,78.58
2022-10-17T00:08:09.414Z,78.58
2022-10-17T00:08:19.674Z,78.58
2022-10-17T00:08:29.939Z,78.88
2022-10-17T00:08:40.198Z,78.88
2022-10-17T00:08:50.463Z,78.68
2022-10-17T00:09:00.799Z,78.68
2022-10-17T00:09:11.034Z,78.78
2022-10-17T00:09:21.295Z,79.08
2022-10-17T00:09:31.573Z,78.99
2022-10-17T00:09:41.824Z,78.88
2022-10-17T00:09:52.082Z,78.68
2022-10-17T00:10:02.343Z,78.68
2022-10-17T00:10:12.607Z,78.58
2022-10-17T00:10:22.868Z,78.88
2022-10-17T00:10:33.131Z,78.99
2022-10-17T00:10:43.391Z,78.99
2022-10-17T00:10:53.657Z,79.19
2022-10-17T00:11:03.928Z,79.19
2022-10-17T00:11:14.194Z,79.19
2022-10-17T00:11:24.458Z,79.19
2022-10-17T00:11:34.719Z,79.29
2022-10-17T00:11:44.977Z,79.19
2022-10-17T00:11:55.243Z,79.08
2022-10-17T00:12:05.505Z,79.08
2022-10-17T00:12:15.766Z,79.19
2022-10-17T00:12:26.029Z,79.39
2022-10-17T00:12:36.294Z,79.29
2022-10-17T00:12:46.550Z,79.39
2022-10-17T00:12:56.815Z,79.59
2022-10-17T00:13:07.074Z,79.59
2022-10-17T00:13:17.337Z,79.59
2022-10-17T00:13:27.665Z,79.49
2022-10-17T00:13:37.917Z,79.49
2022-10-17T00:13:48.176Z,79.39
2022-10-17T00:13:58.435Z,79.19
2022-10-17T00:14:08.697Z,79.19
2022-10-17T00:14:18.961Z,79.08
2022-10-17T00:14:29.222Z,78.88
2022-10-17T00:14:39.490Z,78.99
2022-10-17T00:14:49.750Z,79.19
2022-10-17T00:15:00.012Z,79.19
2022-10-17T00:15:10.269Z,78.88
2022-10-17T00:15:20.532Z,78.78
2022-10-17T00:15:30.799Z,78.68
2022-10-17T00:15:41.066Z,78.58
2022-10-17T00:15:51.322Z,78.48
2022-10-17T00:16:01.600Z,78.38
2022-10-17T00:16:11.858Z,78.28
2022-10-17T00:16:22.119Z,78.48
2022-10-17T00:16:32.388Z,78.68
2022-10-17T00:16:42.648Z,78.68
2022-10-17T00:16:52.914Z,78.48
2022-10-17T00:17:03.169Z,78.38
2022-10-17T00:17:13.428Z,78.38
2022-10-17T00:17:23.691Z,78.48
2022-10-17T00:17:33.952Z,78.68
2022-10-17T00:17:44.274Z,78.78
2022-10-17T00:17:54.499Z,78.88
2022-10-17T00:18:04.750Z,78.85
2022-10-17T00:18:15.036Z,78.99
2022-10-17T00:18:25.276Z,79.08
2022-10-17T00:18:35.539Z,79.25
2022-10-17T00:18:45.801Z,79.29
2022-10-17T00:18:56.062Z,79.15
2022-10-17T00:19:06.325Z,79.19
2022-10-17T00:19:16.597Z,79.19
2022-10-17T00:19:26.851Z,79.19
2022-10-17T00:19:37.113Z,79.15
2022-10-17T00:19:47.372Z,79.19
2022-10-17T00:19:57.634Z,79.08
2022-10-17T00:20:07.900Z,78.99
2022-10-17T00:20:18.183Z,78.85
2022-10-17T00:20:28.429Z,78.75
2022-10-17T00:20:38.691Z,78.85
2022-10-17T00:20:48.960Z,79.25
2022-10-17T00:20:59.248Z,79.35
2022-10-17T00:21:09.546Z,79.46
2022-10-17T00:21:19.789Z,79.55
2022-10-17T00:21:30.051Z,79.46
2022-10-17T00:21:40.312Z,79.29
2022-10-17T00:21:50.575Z,79.29
2022-10-17T00:22:00.844Z,79.29
2022-10-17T00:22:11.098Z,79.39
2022-10-17T00:22:21.358Z,79.39
2022-10-17T00:22:31.656Z,79.49
2022-10-17T00:22:41.914Z,79.39
2022-10-17T00:22:52.159Z,79.19
2022-10-17T00:23:02.416Z,78.99
2022-10-17T00:23:12.684Z,78.75
2022-10-17T00:23:22.964Z,78.99
2022-10-17T00:23:33.230Z,79.08
2022-10-17T00:23:43.494Z,79.05
2022-10-17T00:23:53.755Z,79.05
2022-10-17T00:24:04.006Z,78.95
2022-10-17T00:24:14.272Z,78.78
2022-10-17T00:24:24.536Z,78.55
2022-10-17T00:24:34.799Z,78.48
2022-10-17T00:24:45.057Z,78.55
2022-10-17T00:24:55.351Z,78.55
2022-10-17T00:25:05.592Z,78.48
2022-10-17T00:25:15.852Z,78.44
2022-10-17T00:25:26.108Z,78.38
2022-10-17T00:25:36.371Z,78.58
2022-10-17T00:25:46.637Z,78.58
2022-10-17T00:25:56.895Z,78.55
2022-10-17T00:26:07.170Z,78.58
2022-10-17T00:26:17.439Z,78.55
2022-10-17T00:26:27.699Z,78.55
2022-10-17T00:26:37.961Z,78.68
2022-10-17T00:26:48.338Z,78.88
2022-10-17T00:26:58.599Z,78.75
2022-10-17T00:27:08.863Z,78.78
2022-10-17T00:27:19.132Z,78.75
2022-10-17T00:27:29.891Z,78.55
2022-10-17T00:27:39.641Z,78.64
2022-10-17T00:27:49.900Z,78.85
2022-10-17T00:28:00.174Z,78.95
2022-10-17T00:28:10.427Z,79.08
2022-10-17T00:28:20.729Z,79.29
2022-10-17T00:28:31.034Z,79.29
2022-10-17T00:28:41.343Z,79.15
2022-10-17T00:28:51.719Z,79.05
2022-10-17T00:29:02.025Z,79.05
2022-10-17T00:29:12.246Z,79.05
2022-10-17T00:29:22.507Z,79.19
2022-10-17T00:29:32.770Z,79.35
2022-10-17T00:29:43.030Z,79.39
2022-10-17T00:29:53.293Z,79.49
2022-10-17T00:30:03.555Z,79.39
2022-10-17T00:30:13.882Z,79.25
2022-10-17T00:30:24.100Z,79.25
2022-10-17T00:30:34.363Z,79.05
2022-10-17T00:30:44.626Z,78.85
2022-10-17T00:30:54.891Z,79.08
2022-10-17T00:31:05.169Z,79.15
2022-10-17T00:31:15.431Z,79.19
2022-10-17T00:31:25.695Z,79.15
2022-10-17T00:31:35.961Z,78.99
2022-10-17T00:31:46.300Z,78.95
2022-10-17T00:31:56.544Z,79.15
2022-10-17T00:32:06.840Z,79.25
2022-10-17T00:32:17.068Z,79.25
2022-10-17T00:32:27.656Z,79.29
2022-10-17T00:32:37.710Z,79.15
2022-10-17T00:32:47.970Z,78.95
2022-10-17T00:32:58.234Z,78.95
2022-10-17T00:33:08.502Z,78.99
2022-10-17T00:33:18.766Z,78.95
2022-10-17T00:33:29.026Z,78.85
2022-10-17T00:33:39.291Z,78.88
2022-10-17T00:33:49.551Z,78.95
2022-10-17T00:33:59.812Z,78.95
2022-10-17T00:34:10.074Z,78.88
2022-10-17T00:34:20.336Z,78.85
2022-10-17T00:34:30.598Z,78.85
2022-10-17T00:34:40.906Z,78.88
2022-10-17T00:34:51.157Z,78.75
2022-10-17T00:35:01.411Z,78.78
2022-10-17T00:35:11.679Z,78.75
2022-10-17T00:35:21.933Z,78.64
2022-10-17T00:35:32.195Z,78.44
2022-10-17T00:35:42.459Z,78.14
2022-10-17T00:35:52.720Z,78.14
2022-10-17T00:36:02.985Z,78.38
2022-10-17T00:36:13.283Z,78.58
2022-10-17T00:36:23.523Z,78.85
2022-10-17T00:36:33.785Z,78.85
2022-10-17T00:36:44.046Z,78.85
2022-10-17T00:36:54.308Z,78.75
2022-10-17T00:37:04.569Z,78.55
2022-10-17T00:37:14.831Z,78.24
2022-10-17T00:37:25.094Z,78.28
2022-10-17T00:37:35.361Z,78.64
2022-10-17T00:37:45.618Z,78.68
2022-10-17T00:37:55.878Z,78.88
2022-10-17T00:38:06.141Z,78.64
2022-10-17T00:38:16.454Z,78.85
2022-10-17T00:38:26.689Z,78.75
2022-10-17T00:38:36.948Z,78.68
2022-10-17T00:38:47.210Z,78.55
2022-10-17T00:38:57.475Z,78.48
2022-10-17T00:39:07.735Z,78.48
2022-10-17T00:39:17.995Z,78.38
2022-10-17T00:39:28.257Z,78.48
2022-10-17T00:39:38.569Z,78.68
2022-10-17T00:39:48.791Z,78.58
2022-10-17T00:39:59.059Z,78.24
2022-10-17T00:40:09.315Z,78.08
2022-10-17T00:40:19.585Z,78.38
2022-10-17T00:40:29.851Z,78.78
2022-10-17T00:40:40.135Z,78.68
2022-10-17T00:40:52.673Z,78.48
2022-10-17T00:41:00.799Z,78.38
2022-10-17T00:41:11.058Z,78.28
2022-10-17T00:41:21.320Z,78.38
2022-10-17T00:41:31.585Z,78.38
2022-10-17T00:41:41.841Z,78.55
2022-10-17T00:41:52.106Z,78.64
2022-10-17T00:42:02.366Z,78.85
2022-10-17T00:42:12.626Z,78.88
2022-10-17T00:42:22.891Z,78.78
2022-10-17T00:42:33.181Z,78.55
2022-10-17T00:42:43.425Z,78.48
2022-10-17T00:42:53.700Z,78.28
2022-10-17T00:43:03.946Z,78.24
2022-10-17T00:43:14.210Z,78.48
2022-10-17T00:43:24.470Z,78.68
2022-10-17T00:43:34.734Z,78.64
2022-10-17T00:43:44.993Z,78.58
2022-10-17T00:43:55.260Z,78.48
2022-10-17T00:44:05.517Z,78.38
2022-10-17T00:44:15.778Z,78.28
2022-10-17T00:44:26.051Z,78.44
2022-10-17T00:44:36.310Z,78.48
2022-10-17T00:44:46.572Z,78.48
2022-10-17T00:44:56.883Z,78.28
2022-10-17T00:45:07.127Z,78.44
2022-10-17T00:45:17.384Z,78.64
2022-10-17T00:45:27.645Z,78.78
2022-10-17T00:45:37.907Z,78.68
2022-10-17T00:45:48.168Z,78.58
2022-10-17T00:45:58.432Z,78.38
2022-10-17T00:46:08.707Z,78.28
2022-10-17T00:46:18.970Z,78.55
2022-10-17T00:46:29.231Z,78.68
2022-10-17T00:46:39.492Z,78.68
2022-10-17T00:46:49.756Z,78.58
2022-10-17T00:47:00.019Z,78.38
2022-10-17T00:47:10.276Z,78.17
2022-10-17T00:47:20.546Z,78.17
2022-10-17T00:47:30.805Z,78.48
2022-10-17T00:47:41.063Z,78.68
2022-10-17T00:47:51.324Z,78.68
2022-10-17T00:48:01.640Z,78.68
2022-10-17T00:48:11.915Z,78.68
2022-10-17T00:48:23.342Z,78.78
2022-10-17T00:48:32.367Z,78.68
2022-10-17T00:48:42.635Z,78.78
2022-10-17T00:48:52.892Z,78.99
2022-10-17T00:49:03.153Z,78.78
2022-10-17T00:49:13.414Z,78.58
2022-10-17T00:49:23.681Z,78.34
2022-10-17T00:49:33.943Z,78.17
2022-10-17T00:49:44.209Z,78.48
2022-10-17T00:49:54.551Z,78.88
2022-10-17T00:50:04.781Z,78.99
2022-10-17T00:50:15.031Z,78.88
2022-10-17T00:50:25.296Z,78.78
2022-10-17T00:50:35.561Z,78.88
2022-10-17T00:50:45.817Z,78.78
2022-10-17T00:50:56.083Z,78.68
2022-10-17T00:51:06.357Z,78.58
2022-10-17T00:51:16.644Z,78.48
2022-10-17T00:51:26.880Z,78.58
2022-10-17T00:51:37.148Z,78.68
2022-10-17T00:51:47.403Z,78.48
2022-10-17T00:51:57.736Z,78.48
2022-10-17T00:52:07.998Z,78.58
2022-10-17T00:52:18.258Z,78.78
2022-10-17T00:52:28.893Z,78.78
2022-10-17T00:52:38.944Z,78.88
2022-10-17T00:52:49.181Z,79.08
2022-10-17T00:52:59.435Z,78.88
2022-10-17T00:53:09.701Z,78.68
2022-10-17T00:53:19.964Z,78.48
2022-10-17T00:53:30.224Z,78.58
2022-10-17T00:53:40.483Z,78.58
2022-10-17T00:53:50.749Z,78.48
2022-10-17T00:54:01.007Z,78.58
2022-10-17T00:54:11.272Z,78.48
2022-10-17T00:54:21.535Z,78.48
2022-10-17T00:54:31.800Z,78.38
2022-10-17T00:54:42.053Z,78.48
2022-10-17T00:54:52.316Z,78.68
2022-10-17T00:55:02.576Z,78.58
2022-10-17T00:55:12.839Z,78.58
2022-10-17T00:55:23.119Z,78.78
2022-10-17T00:55:33.363Z,78.68
2022-10-17T00:55:43.624Z,78.68
2022-10-17T00:55:53.889Z,78.78
2022-10-17T00:56:04.160Z,78.78
2022-10-17T00:56:14.421Z,78.88
2022-10-17T00:56:24.682Z,78.99
2022-10-17T00:56:34.945Z,78.99
2022-10-17T00:56:45.204Z,79.08
2022-10-17T00:56:55.467Z,79.19
2022-10-17T00:57:05.734Z,79.19
2022-10-17T00:57:15.996Z,79.08
2022-10-17T00:57:26.251Z,79.08
2022-10-17T00:57:36.516Z,78.88
2022-10-17T00:57:46.785Z,78.78
2022-10-17T00:57:57.038Z,78.58
2022-10-17T00:58:07.297Z,78.48
2022-10-17T00:58:17.566Z,78.58
2022-10-17T00:58:27.830Z,78.88
2022-10-17T00:58:38.084Z,79.08
2022-10-17T00:58:48.348Z,79.19
2022-10-17T00:58:58.625Z,79.29
2022-10-17T00:59:08.878Z,79.19
2022-10-17T00:59:19.137Z,79.19
2022-10-17T00:59:29.398Z,79.39
2022-10-17T00:59:39.658Z,79.39
2022-10-17T00:59:49.926Z,79.19
2022-10-17T01:00:00.255Z,79.19
2022-10-17T01:00:10.469Z,79.19
2022-10-17T01:00:20.734Z,79.19
2022-10-17T01:00:30.993Z,79.49
2022-10-17T01:00:41.288Z,79.39
2022-10-17T01:00:51.543Z,79.29
2022-10-17T01:01:01.878Z,79.29
2022-10-17T01:01:12.169Z,79.59
2022-10-17T01:01:22.474Z,79.69
2022-10-17T01:01:32.781Z,79.79
2022-10-17T01:01:43.125Z,79.79
2022-10-17T01:01:53.363Z,80.00
2022-10-17T01:02:03.629Z,79.90
2022-10-17T01:02:13.889Z,79.69
2022-10-17T01:02:24.165Z,79.79
2022-10-17T01:02:34.424Z,79.79
2022-10-17T01:02:44.674Z,80.00
2022-10-17T01:02:54.934Z,80.00
2022-10-17T01:03:05.258Z,80.00
2022-10-17T01:03:15.480Z,80.00
2022-10-17T01:03:25.753Z,80.00
2022-10-17T01:03:36.007Z,79.90
2022-10-17T01:03:46.271Z,80.00
2022-10-17T01:03:56.488Z,79.90
2022-10-17T01:04:06.756Z,79.90
2022-10-17T01:04:17.013Z,80.00
2022-10-17T01:04:27.286Z,80.10
2022-10-17T01:04:37.543Z,80.00
2022-10-17T01:04:47.807Z,79.90
2022-10-17T01:04:58.066Z,80.00
2022-10-17T01:05:08.330Z,80.10
2022-10-17T01:05:18.608Z,80.20
2022-10-17T01:05:28.856Z,80.30
2022-10-17T01:05:39.112Z,80.30
2022-10-17T01:05:49.374Z,80.30
2022-10-17T01:05:59.634Z,80.30
2022-10-17T01:06:09.916Z,80.20
2022-10-17T01:06:20.191Z,80.20
2022-10-17T01:06:30.493Z,80.10
2022-10-17T01:06:40.714Z,79.90
2022-10-17T01:06:50.979Z,80.00
2022-10-17T01:07:01.241Z,80.00
2022-10-17T01:07:11.501Z,79.90
2022-10-17T01:07:21.763Z,79.90
2022-10-17T01:07:34.851Z,79.90
2022-10-17T01:07:43.240Z,79.79
2022-10-17T01:07:52.635Z,79.90
2022-10-17T01:08:02.896Z,79.90
2022-10-17T01:08:13.162Z,80.00
2022-10-17T01:08:23.419Z,80.00
2022-10-17T01:08:33.682Z,79.90
2022-10-17T01:08:43.942Z,79.69
2022-10-17T01:08:54.207Z,79.59
2022-10-17T01:09:04.470Z,79.49
2022-10-17T01:09:14.728Z,79.39
2022-10-17T01:09:24.993Z,79.90
2022-10-17T01:09:35.250Z,80.00
2022-10-17T01:09:45.512Z,79.90
2022-10-17T01:09:55.774Z,79.69
2022-10-17T01:10:06.092Z,79.59
2022-10-17T01:10:16.385Z,79.49
2022-10-17T01:10:26.631Z,79.59
2022-10-17T01:10:36.886Z,79.69
2022-10-17T01:10:47.145Z,79.59
2022-10-17T01:10:57.425Z,79.69
2022-10-17T01:11:07.690Z,79.79
2022-10-17T01:11:17.952Z,79.79
2022-10-17T01:11:28.214Z,79.79
2022-10-17T01:11:38.478Z,79.79
2022-10-17T01:11:48.735Z,79.59
2022-10-17T01:11:58.999Z,79.59
2022-10-17T01:12:09.258Z,79.49
2022-10-17T01:12:19.520Z,79.39
2022-10-17T01:12:30.128Z,79.19
2022-10-17T01:12:40.108Z,79.08
2022-10-17T01:12:50.369Z,79.08
2022-10-17T01:13:00.633Z,79.49
2022-10-17T01:13:10.894Z,79.59
2022-10-17T01:13:21.159Z,79.59
2022-10-17T01:13:31.428Z,79.49
2022-10-17T01:13:41.694Z,79.39
2022-10-17T01:13:51.953Z,79.29
2022-10-17T01:14:02.211Z,79.29
2022-10-17T01:14:12.476Z,79.19
2022-10-17T01:14:22.733Z,79.08
2022-10-17T01:14:33.001Z,78.99
2022-10-17T01:14:43.258Z,78.99
2022-10-17T01:14:53.520Z,78.99
2022-10-17T01:15:03.780Z,78.99
2022-10-17T01:15:14.045Z,78.99
2022-10-17T01:15:24.353Z,78.99
2022-10-17T01:15:34.605Z,79.29
2022-10-17T01:15:44.867Z,79.29
2022-10-17T01:15:55.130Z,79.59
2022-10-17T01:16:05.408Z,79.59
2022-10-17T01:16:15.672Z,79.49
2022-10-17T01:16:25.930Z,79.29
2022-10-17T01:16:36.193Z,79.19
2022-10-17T01:16:46.451Z,79.08
2022-10-17T01:16:56.715Z,78.99
2022-10-17T01:17:07.040Z,79.08
2022-10-17T01:17:17.267Z,78.99
2022-10-17T01:17:27.527Z,78.88
2022-10-17T01:17:37.793Z,78.99
2022-10-17T01:17:48.054Z,79.19
2022-10-17T01:17:58.319Z,79.19
2022-10-17T01:18:08.576Z,79.08
2022-10-17T01:18:18.838Z,79.08
2022-10-17T01:18:29.100Z,79.08
2022-10-17T01:18:39.361Z,79.19
2022-10-17T01:18:49.622Z,79.08
2022-10-17T01:18:59.888Z,78.88
2022-10-17T01:19:10.148Z,78.99
2022-10-17T01:19:20.460Z,78.99
2022-10-17T01:19:30.732Z,78.99
2022-10-17T01:19:40.972Z,78.88
2022-10-17T01:19:51.237Z,78.78
2022-10-17T01:20:01.526Z,78.78
2022-10-17T01:20:11.762Z,78.78
2022-10-17T01:20:22.019Z,78.68
2022-10-17T01:20:32.279Z,78.58
2022-10-17T01:20:42.545Z,78.48
2022-10-17T01:20:52.803Z,78.38
2022-10-17T01:21:03.081Z,78.38
2022-10-17T01:21:13.345Z,78.58
2022-10-17T01:21:23.624Z,78.78
2022-10-17T01:21:33.865Z,78.88
2022-10-17T01:21:44.126Z,78.88
2022-10-17T01:21:54.394Z,78.58
2022-10-17T01:22:04.650Z,78.68
2022-10-17T01:22:14.912Z,78.88
2022-10-17T01:22:25.411Z,78.88
2022-10-17T01:22:35.562Z,78.78
2022-10-17T01:22:45.824Z,78.68
2022-10-17T01:22:56.084Z,78.58
2022-10-17T01:23:06.350Z,78.58
2022-10-17T01:23:16.608Z,78.58
2022-10-17T01:23:26.871Z,78.48
2022-10-17T01:23:37.138Z,78.48
2022-10-17T01:23:47.399Z,78.48
2022-10-17T01:23:57.661Z,78.38
2022-10-17T01:24:07.959Z,78.28
2022-10-17T01:24:18.200Z,78.17
2022-10-17T01:24:28.461Z,78.08
2022-10-17T01:24:38.721Z,77.97
2022-10-17T01:24:48.988Z,77.77
2022-10-17T01:24:59.246Z,77.67
2022-10-17T01:25:09.510Z,77.67
2022-10-17T01:25:19.770Z,77.67
2022-10-17T01:25:30.037Z,77.87
2022-10-17T01:25:40.298Z,77.87
2022-10-17T01:25:50.563Z,78.08
2022-10-17T01:26:00.818Z,78.48
2022-10-17T01:26:11.099Z,78.68
2022-10-17T01:26:21.356Z,78.78
2022-10-17T01:26:31.619Z,78.99
2022-10-17T01:26:41.879Z,79.08
2022-10-17T01:26:52.140Z,78.99
2022-10-17T01:27:02.403Z,78.68
2022-10-17T01:27:12.699Z,78.58
2022-10-17T01:27:22.962Z,78.48
2022-10-17T01:27:33.217Z,78.28
2022-10-17T01:27:43.477Z,77.87
2022-10-17T01:27:53.740Z,77.47
2022-10-17T01:28:03.999Z,77.26
2022-10-17T01:28:14.396Z,77.26
2022-10-17T01:28:24.801Z,77.47
2022-10-17T01:28:35.040Z,77.57
2022-10-17T01:28:45.306Z,77.17
2022-10-17T01:28:55.567Z,76.97
2022-10-17T01:29:05.831Z,76.86
2022-10-17T01:29:16.100Z,76.86
2022-10-17T01:29:26.353Z,76.86
2022-10-17T01:29:36.780Z,76.86
2022-10-17T01:29:47.040Z,76.86
2022-10-17T01:29:57.302Z,77.37
2022-10-17T01:30:07.565Z,77.97
2022-10-17T01:30:17.827Z,78.08
2022-10-17T01:30:28.089Z,78.08
2022-10-17T01:30:38.353Z,77.87
2022-10-17T01:30:48.614Z,77.47
2022-10-17T01:30:58.874Z,77.06
2022-10-17T01:31:09.152Z,77.06
2022-10-17T01:31:19.411Z,77.37
2022-10-17T01:31:29.688Z,77.47
2022-10-17T01:31:39.937Z,77.26
2022-10-17T01:31:50.197Z,76.86
2022-10-17T01:32:00.462Z,76.66
2022-10-17T01:32:10.822Z,76.66
2022-10-17T01:32:21.082Z,76.76
2022-10-17T01:32:31.343Z,77.37
2022-10-17T01:32:41.606Z,77.67
2022-10-17T01:32:51.874Z,77.67
2022-10-17T01:33:02.152Z,77.67
2022-10-17T01:33:12.402Z,77.67
2022-10-17T01:33:22.666Z,77.67
2022-10-17T01:33:32.926Z,77.77
2022-10-17T01:33:43.190Z,77.67
2022-10-17T01:33:53.453Z,77.57
2022-10-17T01:34:03.766Z,77.37
2022-10-17T01:34:14.030Z,77.47
2022-10-17T01:34:24.286Z,77.47
2022-10-17T01:34:34.550Z,77.47
2022-10-17T01:34:44.811Z,77.37
2022-10-17T01:34:55.082Z,77.26
2022-10-17T01:35:05.347Z,77.26
2022-10-17T01:35:15.606Z,77.37
2022-10-17T01:35:25.868Z,77.37
2022-10-17T01:35:36.128Z,77.37
2022-10-17T01:35:46.394Z,77.17
2022-10-17T01:35:58.622Z,77.26
2022-10-17T01:36:06.894Z,77.17
2022-10-17T01:36:17.161Z,77.06
2022-10-17T01:36:27.443Z,77.17
2022-10-17T01:36:37.679Z,77.67
2022-10-17T01:36:47.944Z,77.97
2022-10-17T01:36:58.210Z,78.08
2022-10-17T01:37:08.466Z,78.08
2022-10-17T01:37:18.795Z,78.08
2022-10-17T01:37:29.046Z,77.97
2022-10-17T01:37:39.339Z,77.87
2022-10-17T01:37:49.622Z,77.87
2022-10-17T01:37:59.843Z,77.97
2022-10-17T01:38:10.106Z,78.08
2022-10-17T01:38:20.371Z,78.08
2022-10-17T01:38:30.627Z,78.28
2022-10-17T01:38:40.892Z,78.38
2022-10-17T01:38:51.166Z,78.38
2022-10-17T01:39:01.420Z,78.38
2022-10-17T01:39:11.682Z,78.28
2022-10-17T01:39:21.949Z,78.08
2022-10-17T01:39:34.432Z,77.97
2022-10-17T01:39:45.506Z,77.97
2022-10-17T01:39:52.698Z,78.08
2022-10-17T01:40:02.962Z,77.97
2022-10-17T01:40:13.223Z,77.97
2022-10-17T01:40:23.485Z,78.08
2022-10-17T01:40:33.749Z,78.17
2022-10-17T01:40:44.012Z,78.58
2022-10-17T01:40:54.274Z,78.68
2022-10-17T01:41:04.532Z,78.58
2022-10-17T01:41:14.816Z,78.68
2022-10-17T01:41:25.081Z,78.78
2022-10-17T01:41:35.338Z,78.58
2022-10-17T01:41:45.597Z,78.48
2022-10-17T01:41:55.860Z,78.48
2022-10-17T01:42:06.122Z,78.68
2022-10-17T01:42:16.383Z,78.78
2022-10-17T01:42:27.122Z,78.58
2022-10-17T01:42:37.038Z,78.58
2022-10-17T01:42:47.297Z,78.78
2022-10-17T01:42:57.562Z,78.78
2022-10-17T01:43:07.825Z,78.78
2022-10-17T01:43:18.084Z,78.78
2022-10-17T01:43:28.344Z,78.58
2022-10-17T01:43:38.613Z,78.48
2022-10-17T01:43:48.870Z,78.38
2022-10-17T01:43:59.130Z,78.08
2022-10-17T01:44:09.391Z,78.28
2022-10-17T01:44:19.664Z,78.38
2022-10-17T01:44:29.923Z,78.48
2022-10-17T01:44:40.187Z,78.78
2022-10-17T01:44:50.450Z,78.68
2022-10-17T01:45:00.715Z,78.58
2022-10-17T01:45:10.976Z,78.48
2022-10-17T01:45:21.238Z,78.48
2022-10-17T01:45:31.498Z,78.38
2022-10-17T01:45:41.779Z,78.38
2022-10-17T01:45:52.040Z,78.28
2022-10-17T01:46:02.299Z,78.48
2022-10-17T01:46:12.563Z,78.48
2022-10-17T01:46:22.823Z,78.58
2022-10-17T01:46:33.085Z,78.68
2022-10-17T01:46:43.351Z,78.68
2022-10-17T01:46:53.656Z,78.68
2022-10-17T01:47:03.882Z,78.78
2022-10-17T01:47:14.142Z,78.88
2022-10-17T01:47:24.624Z,78.78
2022-10-17T01:47:34.802Z,78.68
2022-10-17T01:47:45.069Z,78.58
2022-10-17T01:47:55.324Z,78.58
2022-10-17T01:48:05.586Z,78.48
2022-10-17T01:48:15.858Z,78.38
2022-10-17T01:48:26.124Z,78.58
2022-10-17T01:48:36.377Z,78.58
2022-10-17T01:48:46.643Z,78.68
2022-10-17T01:48:56.901Z,78.68
2022-10-17T01:49:07.165Z,78.72
2022-10-17T01:49:17.467Z,78.82
2022-10-17T01:49:27.713Z,78.99
2022-10-17T01:49:37.983Z,78.99
2022-10-17T01:49:48.238Z,78.88
2022-10-17T01:49:58.507Z,78.78
2022-10-17T01:50:08.762Z,78.72
2022-10-17T01:50:19.022Z,78.48
2022-10-17T01:50:29.291Z,78.72
2022-10-17T01:50:39.546Z,78.78
2022-10-17T01:50:49.822Z,78.99
2022-10-17T01:51:00.089Z,79.13
2022-10-17T01:51:10.344Z,79.33
2022-10-17T01:51:20.607Z,79.33
2022-10-17T01:51:30.888Z,79.43
2022-10-17T01:51:41.127Z,79.49
2022-10-17T01:51:51.392Z,79.29
2022-10-17T01:52:01.649Z,79.19
2022-10-17T01:52:11.912Z,78.99
2022-10-17T01:52:22.174Z,79.02
2022-10-17T01:52:32.444Z,79.22
2022-10-17T01:52:42.695Z,79.22
2022-10-17T01:52:52.963Z,79.08
2022-10-17T01:53:03.221Z,79.08
2022-10-17T01:53:13.481Z,79.19
2022-10-17T01:53:23.746Z,79.13
2022-10-17T01:53:34.003Z,79.02
2022-10-17T01:53:44.341Z,79.02
2022-10-17T01:53:54.557Z,79.19
2022-10-17T01:54:04.813Z,79.43
2022-10-17T01:54:15.075Z,79.22
2022-10-17T01:54:25.337Z,79.33
2022-10-17T01:54:35.596Z,79.33
2022-10-17T01:54:45.927Z,79.22
2022-10-17T01:54:56.155Z,79.13
2022-10-17T01:55:06.387Z,78.92
2022-10-17T01:55:16.654Z,79.22
2022-10-17T01:55:26.924Z,79.43
2022-10-17T01:55:37.183Z,79.22
2022-10-17T01:55:47.543Z,79.02
2022-10-17T01:56:08.230Z,79.02
2022-10-17T01:56:18.490Z,78.92
2022-10-17T01:56:28.758Z,79.22
2022-10-17T01:56:39.014Z,79.49
2022-10-17T01:56:49.274Z,79.53
2022-10-17T01:56:59.538Z,79.53
2022-10-17T01:57:09.797Z,79.43
2022-10-17T01:57:20.055Z,79.33
2022-10-17T01:57:30.831Z,79.33
2022-10-17T01:57:40.717Z,79.33
2022-10-17T01:57:50.982Z,79.19
2022-10-17T01:58:01.240Z,79.33
2022-10-17T01:58:11.504Z,79.43
2022-10-17T01:58:21.770Z,79.43
2022-10-17T01:58:32.031Z,79.59
2022-10-17T01:58:42.287Z,79.59
2022-10-17T01:58:52.549Z,79.49
2022-10-17T01:59:02.810Z,79.63
2022-10-17T01:59:13.079Z,79.73
2022-10-17T01:59:23.335Z,80.04
2022-10-17T01:59:33.636Z,80.10
2022-10-17T01:59:43.954Z,80.04
2022-10-17T01:59:54.196Z,80.10
2022-10-17T02:00:04.469Z,80.04
2022-10-17T02:00:14.726Z,79.90
2022-10-17T02:00:25.006Z,80.04
2022-10-17T02:00:35.265Z,80.04
2022-10-17T02:00:45.527Z,79.93
2022-10-17T02:00:55.825Z,79.93
2022-10-17T02:01:06.120Z,80.04
2022-10-17T02:01:16.429Z,79.93
2022-10-17T02:01:26.749Z,80.34
2022-10-17T02:01:37.099Z,80.54
2022-10-17T02:01:47.435Z,80.60
2022-10-17T02:01:57.662Z,80.54
2022-10-17T02:02:07.923Z,80.54
2022-10-17T02:02:18.186Z,80.54
2022-10-17T02:02:28.451Z,80.30
2022-10-17T02:02:38.708Z,80.13
2022-10-17T02:02:49.015Z,80.10
2022-10-17T02:02:59.255Z,80.24
2022-10-17T02:03:09.516Z,80.24
2022-10-17T02:03:19.778Z,80.24
2022-10-17T02:03:30.037Z,80.24
2022-10-17T02:03:40.299Z,80.13
2022-10-17T02:03:50.560Z,80.44
2022-10-17T02:04:00.823Z,80.50
2022-10-17T02:04:11.083Z,80.44
2022-10-17T02:04:21.351Z,80.24
2022-10-17T02:04:31.609Z,80.40
2022-10-17T02:04:41.874Z,80.44
2022-10-17T02:04:52.220Z,80.34
2022-10-17T02:05:02.492Z,80.44
2022-10-17T02:05:12.712Z,80.44
2022-10-17T02:05:22.967Z,80.50
2022-10-17T02:05:33.243Z,80.74
2022-10-17T02:05:43.505Z,80.84
2022-10-17T02:05:53.764Z,80.71
2022-10-17T02:06:04.026Z,80.64
2022-10-17T02:06:14.287Z,80.74
2022-10-17T02:06:24.548Z,80.84
2022-10-17T02:06:34.830Z,80.91
2022-10-17T02:06:45.071Z,80.80
2022-10-17T02:06:55.330Z,81.01
2022-10-17T02:07:05.593Z,81.01
2022-10-17T02:07:15.852Z,81.01
2022-10-17T02:07:26.530Z,81.15
2022-10-17T02:07:36.523Z,81.11
2022-10-17T02:07:46.780Z,81.25
2022-10-17T02:07:57.041Z,81.15
2022-10-17T02:08:07.302Z,81.15
2022-10-17T02:08:17.569Z,81.01
2022-10-17T02:08:27.827Z,81.15
2022-10-17T02:08:38.086Z,81.35
2022-10-17T02:08:48.347Z,81.35
2022-10-17T02:08:58.610Z,81.21
2022-10-17T02:09:08.871Z,81.21
2022-10-17T02:09:19.134Z,81.25
2022-10-17T02:09:29.392Z,81.11
2022-10-17T02:09:39.653Z,81.11
2022-10-17T02:09:49.917Z,81.11
2022-10-17T02:10:00.174Z,81.11
2022-10-17T02:10:10.436Z,81.05
2022-10-17T02:10:20.738Z,81.11
2022-10-17T02:10:30.993Z,81.21
2022-10-17T02:10:41.247Z,81.31
2022-10-17T02:10:51.525Z,81.21
2022-10-17T02:11:01.798Z,81.21
2022-10-17T02:11:12.047Z,81.31
2022-10-17T02:11:22.311Z,81.21
2022-10-17T02:11:32.571Z,81.11
2022-10-17T02:11:42.831Z,80.91
2022-10-17T02:11:53.095Z,81.01
2022-10-17T02:12:03.355Z,81.15
2022-10-17T02:12:13.614Z,81.21
2022-10-17T02:12:23.879Z,81.11
2022-10-17T02:12:34.143Z,81.01